ΕΜΥ, Εθνική Μετεωρολογική Υπηρεσία - Δελτία Καιρού, Προγνώσεις

ΑΕΡΟΝΑΥΤΙΛΙΑ

GREEK AIRPORTS CODES

LGIO 181020Z 28007KT 190V330 9999 BKN030 15/04 Q1008=

EUROPEAN AIRPORTS CODES

LFPO 181030Z 04009KT 020V080 9999 BKN029 09/03 Q1022 NOSIG=